Time;durP1;ratioP1;P1;durP2;ratioP2;P2;SDS_P1;SDS_P2;PMS_P1;PMS_P2;Temp;Humidity;BMP_temperature;BMP_pressure;BME280_temperature;BME280_humidity;BME280_pressure;Samples;Min_cycle;Max_cycle;Signal;HPM_P1;HPM_P2
2021/03/16 00:01:04;;;;;;;16.88;2.50;;;7.30;95.90;;;;;;4805945;29;20055;-76
2021/03/16 00:03:30;;;;;;;;;;;7.50;95.80;;;;;;4790252;29;20043;-77
2021/03/16 00:05:55;;;;;;;19.42;3.15;;;7.50;95.60;;;;;;4807458;29;19921;-78
2021/03/16 00:08:21;;;;;;;14.50;3.55;;;7.30;95.60;;;;;;4805088;29;20043;-78
2021/03/16 00:10:46;;;;;;;27.45;4.72;;;7.10;96.00;;;;;;4805924;29;20462;-77
2021/03/16 00:13:12;;;;;;;24.63;3.58;;;6.90;96.10;;;;;;4806195;29;20466;-77
2021/03/16 00:15:38;;;;;;;15.98;3.05;;;7.10;96.20;;;;;;4805837;29;20078;-79
2021/03/16 00:18:04;;;;;;;20.55;4.00;;;7.20;96.10;;;;;;4807225;29;20095;-76
2021/03/16 00:20:31;;;;;;;16.95;3.42;;;7.10;96.00;;;;;;4805757;29;20043;-78
2021/03/16 00:22:56;;;;;;;19.95;2.83;;;7.20;96.10;;;;;;4806021;29;20031;-76
2021/03/16 00:25:22;;;;;;;17.08;3.20;;;7.20;96.10;;;;;;4805580;29;20638;-77
2021/03/16 00:27:47;;;;;;;20.58;3.33;;;7.30;96.10;;;;;;4804431;29;20034;-77
2021/03/16 00:30:14;;;;;;;18.63;3.83;;;7.10;96.20;;;;;;4805047;29;20062;-76
2021/03/16 00:32:40;;;;;;;22.00;3.67;;;7.20;96.30;;;;;;4790892;29;20662;-77
2021/03/16 00:35:06;;;;;;;14.27;2.97;;;7.00;96.30;;;;;;4805405;29;20103;-77
2021/03/16 00:37:33;;;;;;;22.80;4.13;;;7.10;96.40;;;;;;4804722;29;20049;-77
2021/03/16 00:39:59;;;;;;;26.42;5.03;;;7.20;96.40;;;;;;4789088;29;20063;-76
2021/03/16 00:42:24;;;;;;;13.98;3.38;;;6.90;96.70;;;;;;4804348;29;20477;-76
2021/03/16 00:44:50;;;;;;;23.83;4.15;;;7.00;96.80;;;;;;4806268;29;20054;-77
2021/03/16 00:47:15;;;;;;;26.75;4.43;;;6.80;96.80;;;;;;4804599;29;20126;-77
2021/03/16 00:49:41;;;;;;;31.60;4.18;;;6.90;96.80;;;;;;4805164;29;20138;-77
2021/03/16 00:52:06;;;;;;;18.45;4.18;;;7.00;96.60;;;;;;4804816;29;20051;-77
2021/03/16 00:54:32;;;;;;;14.63;4.03;;;7.10;96.50;;;;;;4805035;29;20078;-76
2021/03/16 00:56:58;;;;;;;22.45;3.42;;;7.10;96.50;;;;;;4806808;29;20043;-76
2021/03/16 00:59:23;;;;;;;20.25;4.05;;;7.20;96.40;;;;;;4804737;29;20038;-76
2021/03/16 01:01:49;;;;;;;21.13;3.97;;;7.10;96.40;;;;;;4804392;29;20038;-78
2021/03/16 01:04:15;;;;;;;15.57;3.28;;;6.90;96.50;;;;;;4804850;29;20059;-76
2021/03/16 01:06:40;;;;;;;16.58;2.88;;;7.10;96.60;;;;;;4804875;29;20370;-76
2021/03/16 01:09:06;;;;;;;20.98;3.42;;;7.00;96.60;;;;;;4805282;29;20035;-77
2021/03/16 01:11:31;;;;;;;13.13;2.90;;;7.00;96.60;;;;;;4804660;29;20422;-77
2021/03/16 01:13:57;;;;;;;21.60;3.53;;;6.80;96.90;;;;;;4804284;29;20057;-77
2021/03/16 01:16:23;;;;;;;27.55;3.33;;;6.80;97.10;;;;;;4804709;29;20507;-77
2021/03/16 01:18:49;;;;;;;21.48;4.40;;;6.80;97.10;;;;;;4804783;29;20385;-76
2021/03/16 01:21:15;;;;;;;16.58;2.85;;;6.60;97.40;;;;;;4804213;29;20061;-76
2021/03/16 01:23:40;;;;;;;20.13;3.47;;;6.60;97.50;;;;;;4806070;29;20038;-78
2021/03/16 01:26:06;;;;;;;20.08;2.95;;;6.50;97.50;;;;;;4804352;29;20042;-78
2021/03/16 01:28:33;;;;;;;22.60;3.45;;;6.40;97.70;;;;;;4804382;29;20122;-78
2021/03/16 01:30:59;;;;;;;24.55;3.75;;;6.40;97.70;;;;;;4788390;29;20389;-77
2021/03/16 01:33:25;;;;;;;26.00;2.80;;;6.40;97.60;;;;;;4804373;29;20027;-75
2021/03/16 01:35:50;;;;;;;14.95;3.03;;;6.30;97.70;;;;;;4789905;29;20116;-77
2021/03/16 01:38:16;;;;;;;20.33;3.20;;;6.30;97.80;;;;;;4804174;29;20084;-77
2021/03/16 01:40:42;;;;;;;19.73;2.95;;;6.30;97.70;;;;;;4788318;29;20128;-78
2021/03/16 01:43:23;;;;;;;20.10;3.00;;;6.20;97.60;;;;;;4788307;29;20379;-78
2021/03/16 01:45:49;;;;;;;17.50;3.10;;;6.20;97.70;;;;;;4788196;29;20046;-76
2021/03/16 01:48:20;;;;;;;28.80;3.70;;;6.00;98.00;;;;;;4804055;29;20344;-75
2021/03/16 01:50:46;;;;;;;20.38;3.08;;;5.90;98.10;;;;;;4789452;29;20051;-78
2021/03/16 01:53:12;;;;;;;21.23;3.05;;;5.90;98.10;;;;;;4804132;29;20140;-76
2021/03/16 01:55:39;;;;;;;25.23;3.75;;;6.00;98.00;;;;;;4803988;29;20486;-77
2021/03/16 01:58:05;;;;;;;27.48;4.43;;;5.90;98.00;;;;;;4802962;29;20039;-77
2021/03/16 02:00:36;;;;;;;23.95;3.67;;;5.80;98.20;;;;;;4803773;29;20043;-77
2021/03/16 02:03:02;;;;;;;23.58;3.75;;;5.90;98.20;;;;;;4789272;29;20070;-77
2021/03/16 02:05:28;;;;;;;15.10;2.80;;;5.70;98.20;;;;;;4803342;29;20132;-78
2021/03/16 02:08:12;;;;;;;20.75;4.10;;;5.70;98.40;;;;;;4803826;29;20047;-77
2021/03/16 02:10:38;;;;;;;18.48;4.28;;;5.80;98.30;;;;;;4787550;29;20096;-79
2021/03/16 02:13:19;;;;;;;20.00;3.28;;;5.70;98.30;;;;;;4802800;29;20433;-77
2021/03/16 02:15:48;;;;;;;25.75;3.95;;;5.60;98.30;;;;;;4803645;29;20046;-77
2021/03/16 02:18:20;;;;;;;24.70;3.05;;;5.70;98.30;;;;;;4803700;29;20418;-78
2021/03/16 02:21:00;;;;;;;18.90;3.13;;;5.60;98.40;;;;;;4789234;29;20343;-76
2021/03/16 02:23:48;;;;;;;18.30;3.10;;;5.50;98.40;;;;;;4787288;29;20042;-78
2021/03/16 02:26:21;;;;;;;18.48;3.55;;;5.70;98.30;;;;;;4803349;29;20435;-79
2021/03/16 02:29:06;;;;;;;19.20;3.70;;;5.70;98.10;;;;;;4803499;29;20046;-77
2021/03/16 02:31:33;;;;;;;14.52;2.90;;;5.60;98.10;;;;;;4803468;29;20030;-76
2021/03/16 02:34:03;;;;;;;25.87;3.37;;;5.60;98.20;;;;;;4803101;29;20396;-77
2021/03/16 02:36:29;;;;;;;22.70;3.83;;;5.60;98.30;;;;;;4815334;29;20277;-77
2021/03/16 02:38:56;;;;;;;18.90;2.90;;;5.60;98.20;;;;;;4806761;29;20041;-77
2021/03/16 02:41:23;;;;;;;25.33;3.53;;;5.70;98.10;;;;;;4821337;29;20043;-77
2021/03/16 02:43:49;;;;;;;23.50;3.50;;;5.70;98.10;;;;;;4821416;29;20043;-77
2021/03/16 02:46:16;;;;;;;22.48;3.15;;;5.70;98.20;;;;;;4805149;29;20098;-77
2021/03/16 02:48:44;;;;;;;15.93;3.08;;;5.80;98.00;;;;;;4804974;29;20030;-77
2021/03/16 02:51:10;;;;;;;14.35;2.63;;;5.90;97.90;;;;;;4823038;29;20130;-77
2021/03/16 02:53:37;;;;;;;20.35;3.08;;;5.80;97.90;;;;;;4821649;29;20034;-76
2021/03/16 02:56:06;;;;;;;20.75;2.92;;;5.70;98.00;;;;;;4805003;29;20082;-77
2021/03/16 02:58:33;;;;;;;20.23;2.90;;;5.70;98.00;;;;;;4821193;29;20052;-77
2021/03/16 03:01:00;;;;;;;15.40;2.70;;;5.70;98.10;;;;;;4821143;29;20381;-77
2021/03/16 03:03:27;;;;;;;20.02;2.55;;;5.70;98.20;;;;;;4804501;29;20045;-76
2021/03/16 03:05:54;;;;;;;22.73;3.20;;;5.60;98.20;;;;;;4806128;29;20050;-77
2021/03/16 03:08:22;;;;;;;21.27;3.17;;;5.70;98.40;;;;;;4821205;29;20469;-77
2021/03/16 03:10:47;;;;;;;29.37;3.20;;;5.80;98.30;;;;;;4820787;29;20113;-76
2021/03/16 03:13:13;;;;;;;14.43;2.65;;;5.60;98.60;;;;;;4820848;29;20121;-75
2021/03/16 03:15:39;;;;;;;21.10;3.17;;;5.70;98.60;;;;;;4820623;29;20441;-75
2021/03/16 03:18:05;;;;;;;33.53;3.58;;;5.60;98.70;;;;;;4822389;29;20075;-75
2021/03/16 03:20:34;;;;;;;31.55;3.03;;;5.70;98.70;;;;;;4805103;29;20046;-76
2021/03/16 03:23:06;;;;;;;20.90;3.28;;;5.70;98.50;;;;;;4820843;29;20034;-76
2021/03/16 03:25:43;;;;;;;10.88;2.80;;;5.80;98.40;;;;;;4820743;29;20061;-76
2021/03/16 03:28:16;;;;;;;25.80;4.05;;;5.70;98.60;;;;;;4821043;29;20134;-76
2021/03/16 03:30:44;;;;;;;25.13;3.30;;;5.80;98.50;;;;;;4804591;29;20037;-76
2021/03/16 03:33:12;;;;;;;18.73;2.30;;;5.90;98.50;;;;;;4822092;29;20026;-76
2021/03/16 03:35:38;;;;;;;17.52;3.92;;;5.90;98.40;;;;;;4804865;29;20184;-77
2021/03/16 03:38:04;;;;;;;20.02;3.95;;;5.90;98.50;;;;;;4804332;29;20473;-77
2021/03/16 03:40:32;;;;;;;27.80;3.13;;;5.90;98.60;;;;;;4820607;29;20370;-77
2021/03/16 03:43:01;;;;;;;27.33;3.33;;;5.90;98.80;;;;;;4804273;29;20042;-77
2021/03/16 03:45:28;;;;;;;25.25;3.90;;;6.10;98.50;;;;;;4804032;29;20117;-78
2021/03/16 03:47:58;;;;;;;20.83;3.40;;;5.90;98.50;;;;;;4805896;29;20171;-78
2021/03/16 03:50:24;;;;;;;22.50;3.97;;;5.80;98.70;;;;;;4820548;29;20421;-78
2021/03/16 03:52:51;;;;;;;24.60;5.35;;;5.80;98.70;;;;;;4804294;29;20058;-78
2021/03/16 03:55:18;;;;;;;28.17;5.13;;;5.80;98.90;;;;;;4820270;29;20498;-76
2021/03/16 03:57:44;;;;;;;20.05;4.57;;;5.60;99.30;;;;;;4820589;29;20138;-76
2021/03/16 04:00:13;;;;;;;40.47;5.15;;;5.90;99.10;;;;;;4821974;29;20031;-75
2021/03/16 04:02:42;;;;;;;25.13;4.88;;;6.00;98.90;;;;;;4820612;29;20213;-74
2021/03/16 04:05:12;;;;;;;26.08;5.03;;;5.90;98.90;;;;;;4820275;29;20138;-75
2021/03/16 04:07:37;;;;;;;29.58;6.22;;;5.90;99.00;;;;;;4820343;29;20038;-75
2021/03/16 04:10:08;;;;;;;20.08;4.97;;;5.70;99.20;;;;;;4803851;29;20330;-76
2021/03/16 04:12:36;;;;;;;21.35;4.82;;;5.80;99.10;;;;;;4820057;29;20090;-76
2021/03/16 04:15:09;;;;;;;24.10;5.05;;;5.80;99.00;;;;;;4821612;29;20183;-77
2021/03/16 04:17:36;;;;;;;19.00;4.32;;;5.70;99.40;;;;;;4820270;29;20485;-76
2021/03/16 04:20:05;;;;;;;39.15;9.30;;;5.60;99.50;;;;;;4820445;29;20100;-77
2021/03/16 04:22:30;;;;;;;25.65;4.88;;;5.60;99.60;;;;;;4820440;29;20098;-77
2021/03/16 04:24:57;;;;;;;26.10;5.90;;;5.70;99.30;;;;;;4820445;29;20431;-76
2021/03/16 04:27:24;;;;;;;22.83;5.13;;;5.80;99.10;;;;;;4820400;29;20816;-77
2021/03/16 04:29:50;;;;;;;21.65;5.40;;;5.70;99.20;;;;;;4805633;29;20087;-78
2021/03/16 04:32:16;;;;;;;21.42;5.30;;;5.70;99.20;;;;;;4820344;29;20049;-81
2021/03/16 04:34:42;;;;;;;25.02;4.63;;;5.60;99.00;;;;;;4820321;29;20042;-76
2021/03/16 04:37:07;;;;;;;17.65;4.95;;;5.70;99.00;;;;;;4805775;29;20042;-74
2021/03/16 04:39:33;;;;;;;24.90;5.78;;;5.50;99.10;;;;;;4807193;29;20120;-73
2021/03/16 04:41:58;;;;;;;18.85;4.65;;;5.50;99.10;;;;;;4808531;29;20437;-76
2021/03/16 04:44:24;;;;;;;23.77;4.60;;;5.70;99.00;;;;;;4822842;29;20039;-75
2021/03/16 04:46:50;;;;;;;15.52;4.65;;;5.70;98.70;;;;;;4823440;29;20030;-76
2021/03/16 04:49:15;;;;;;;30.35;5.60;;;5.60;98.80;;;;;;4823259;29;20113;-75
2021/03/16 04:51:41;;;;;;;31.83;5.53;;;5.70;98.80;;;;;;4807614;29;20023;-74
2021/03/16 04:54:07;;;;;;;22.17;5.10;;;5.60;98.70;;;;;;4824714;29;20037;-76
2021/03/16 04:56:33;;;;;;;18.73;5.68;;;5.60;98.80;;;;;;4823135;29;20159;-76
2021/03/16 04:58:59;;;;;;;21.67;5.32;;;5.60;98.70;;;;;;4807335;29;20133;-76
2021/03/16 05:01:25;;;;;;;30.85;4.65;;;5.60;98.80;;;;;;4806687;29;20125;-75
2021/03/16 05:03:50;;;;;;;32.25;5.10;;;5.60;98.70;;;;;;4822765;29;20042;-75
2021/03/16 05:06:16;;;;;;;24.08;4.25;;;5.60;98.70;;;;;;4822821;29;20109;-74
2021/03/16 05:08:42;;;;;;;20.55;4.07;;;5.70;98.50;;;;;;4808319;29;20035;-76
2021/03/16 05:11:07;;;;;;;25.67;5.13;;;5.50;98.70;;;;;;4822769;29;20041;-76
2021/03/16 05:13:33;;;;;;;19.98;4.30;;;5.40;98.70;;;;;;4822688;29;20046;-74
2021/03/16 05:16:00;;;;;;;28.88;3.95;;;5.50;98.90;;;;;;4806930;29;20031;-75
2021/03/16 05:18:26;;;;;;;18.65;4.93;;;5.40;98.70;;;;;;4822750;29;20033;-74
2021/03/16 05:20:52;;;;;;;23.27;4.00;;;5.50;98.70;;;;;;4823882;29;20035;-75
2021/03/16 05:23:17;;;;;;;22.88;4.85;;;5.50;98.60;;;;;;4806572;29;20046;-75
2021/03/16 05:25:43;;;;;;;15.57;3.83;;;5.50;98.60;;;;;;4822732;29;20108;-75
2021/03/16 05:28:08;;;;;;;27.88;5.45;;;5.50;98.60;;;;;;4822532;29;20488;-77
2021/03/16 05:30:34;;;;;;;23.83;4.35;;;5.60;98.60;;;;;;4806350;29;20361;-77
2021/03/16 05:33:00;;;;;;;13.07;3.80;;;5.60;98.40;;;;;;4824013;29;20026;-75
2021/03/16 05:35:27;;;;;;;23.42;3.70;;;5.60;98.60;;;;;;4822035;29;20035;-76
2021/03/16 05:37:54;;;;;;;26.17;4.68;;;5.60;98.50;;;;;;4822226;29;20525;-75
2021/03/16 05:40:20;;;;;;;15.43;3.45;;;5.70;98.50;;;;;;4822318;29;20046;-76
2021/03/16 05:42:46;;;;;;;22.23;4.18;;;5.60;98.50;;;;;;4822580;29;20064;-76
2021/03/16 05:45:13;;;;;;;26.27;4.35;;;5.60;99.00;;;;;;4806062;29;20026;-76
2021/03/16 05:47:40;;;;;;;16.73;4.13;;;5.70;98.60;;;;;;4823259;29;20083;-76
2021/03/16 05:50:07;;;;;;;33.35;5.03;;;5.80;98.60;;;;;;4821991;29;20121;-77
2021/03/16 05:52:34;;;;;;;25.05;3.80;;;5.90;98.50;;;;;;4821819;29;20499;-77
2021/03/16 05:55:00;;;;;;;29.05;3.88;;;5.90;98.50;;;;;;4821919;29;20118;-77
2021/03/16 05:57:27;;;;;;;21.58;4.30;;;5.90;98.40;;;;;;4821998;29;20030;-76
2021/03/16 05:59:52;;;;;;;21.40;4.10;;;5.90;98.60;;;;;;4823643;29;20110;-76
2021/03/16 06:02:18;;;;;;;24.33;4.30;;;6.00;98.50;;;;;;4821911;29;20034;-76
2021/03/16 06:04:45;;;;;;;25.70;4.53;;;5.90;98.50;;;;;;4805421;29;20054;-77
2021/03/16 06:07:15;;;;;;;22.98;5.47;;;6.00;98.60;;;;;;4821738;29;20034;-76
2021/03/16 06:09:42;;;;;;;25.27;4.43;;;6.10;98.50;;;;;;4822019;29;20087;-78
2021/03/16 06:12:08;;;;;;;20.50;4.50;;;6.20;98.40;;;;;;4823077;29;20653;-78
2021/03/16 06:14:36;;;;;;;24.08;4.10;;;6.20;98.30;;;;;;4805411;29;20552;-80
2021/03/16 06:17:03;;;;;;;26.63;4.28;;;6.30;98.20;;;;;;4821704;29;20038;-77
2021/03/16 06:19:34;;;;;;;16.75;4.25;;;6.30;98.20;;;;;;4821578;29;20093;-77
2021/03/16 06:22:07;;;;;;;30.10;4.65;;;6.30;98.20;;;;;;4821478;29;20049;-77
2021/03/16 06:24:43;;;;;;;24.10;3.55;;;6.30;98.20;;;;;;4821706;29;20105;-77
2021/03/16 06:27:26;;;;;;;17.48;3.67;;;6.40;98.10;;;;;;4822757;29;20034;-78
2021/03/16 06:29:52;;;;;;;25.80;3.45;;;6.50;98.00;;;;;;4821614;29;20592;-77
2021/03/16 06:32:18;;;;;;;22.88;3.85;;;6.50;97.90;;;;;;4821439;29;20042;-76
2021/03/16 06:34:44;;;;;;;21.50;3.78;;;6.40;98.00;;;;;;4805491;29;20071;-77
2021/03/16 06:37:10;;;;;;;27.77;3.35;;;6.40;98.10;;;;;;4805306;29;20047;-77
2021/03/16 06:39:46;;;;;;;30.38;5.10;;;6.60;98.10;;;;;;4803252;29;20494;-78
2021/03/16 06:42:21;;;;;;;23.30;3.65;;;6.60;97.90;;;;;;4803193;29;20027;-76
2021/03/16 06:45:06;;;;;;;17.85;3.55;;;6.50;97.90;;;;;;4804909;29;20034;-78
2021/03/16 06:47:50;;;;;;;24.73;4.85;;;6.60;98.20;;;;;;4802811;29;20039;-77
2021/03/16 06:50:15;;;;;;;27.95;3.30;;;6.70;97.70;;;;;;4801739;29;20106;-77
2021/03/16 06:52:48;;;;;;;19.77;3.28;;;6.60;97.80;;;;;;4803087;29;20187;-78
2021/03/16 06:55:14;;;;;;;23.95;4.07;;;6.70;97.70;;;;;;4802077;29;20035;-77
2021/03/16 06:57:39;;;;;;;19.75;3.25;;;6.70;97.60;;;;;;4802869;29;20034;-78
2021/03/16 07:00:07;;;;;;;23.27;3.08;;;6.80;97.40;;;;;;4802867;29;20027;-79
2021/03/16 07:02:33;;;;;;;24.65;3.25;;;6.80;97.30;;;;;;4786843;29;20046;-79
2021/03/16 07:04:59;;;;;;;25.60;3.67;;;6.70;97.30;;;;;;4801400;29;20062;-79
2021/03/16 07:07:26;;;;;;;26.70;3.85;;;6.70;97.60;;;;;;4802782;29;20058;-80
2021/03/16 07:09:59;;;;;;;22.08;3.67;;;6.90;97.30;;;;;;4802850;29;20414;-77
2021/03/16 07:12:31;;;;;;;20.50;3.95;;;6.90;97.00;;;;;;4802844;29;20023;-77
2021/03/16 07:14:58;;;;;;;24.70;3.95;;;7.00;97.20;;;;;;4804094;29;20421;-79
2021/03/16 07:17:24;;;;;;;28.88;3.95;;;7.10;97.20;;;;;;4802606;29;20291;-78
2021/03/16 07:19:53;;;;;;;24.33;3.80;;;6.90;97.20;;;;;;4802487;29;20078;-79
2021/03/16 07:22:21;;;;;;;27.70;3.88;;;7.10;97.40;;;;;;4802527;29;20110;-79
2021/03/16 07:24:47;;;;;;;39.00;3.90;;;7.10;97.40;;;;;;4786707;29;20489;-78
2021/03/16 07:27:13;;;;;;;18.42;4.30;;;7.30;97.40;;;;;;4802310;29;20030;-77
2021/03/16 07:29:40;;;;;;;27.50;3.78;;;7.40;97.30;;;;;;4804115;29;20107;-78
2021/03/16 07:32:07;;;;;;;25.80;4.07;;;7.50;97.10;;;;;;4802674;29;20046;-78
2021/03/16 07:34:34;;;;;;;23.70;3.72;;;7.30;97.20;;;;;;4802303;29;20075;-79
2021/03/16 07:37:02;;;;;;;24.13;3.80;;;7.50;97.20;;;;;;4802315;29;20159;-80
2021/03/16 07:39:27;;;;;;;;;;;7.50;97.00;;;;;;4802720;29;20102;-79
2021/03/16 07:41:54;;;;;;;23.00;3.30;;;7.60;96.80;;;;;;4804706;29;19912;-77
2021/03/16 07:44:20;;;;;;;22.88;4.22;;;7.70;96.80;;;;;;4802355;29;20110;-78
2021/03/16 07:46:53;;;;;;;20.10;3.53;;;7.90;96.50;;;;;;4802431;29;20046;-78
2021/03/16 07:49:33;;;;;;;18.73;3.10;;;8.00;96.10;;;;;;4802393;29;20547;-77
2021/03/16 07:52:00;;;;;;;21.42;3.47;;;8.00;95.90;;;;;;4802284;29;20417;-79
2021/03/16 07:54:40;;;;;;;23.65;3.50;;;8.00;95.90;;;;;;4801988;29;20074;-77
2021/03/16 07:57:06;;;;;;;18.38;2.78;;;7.90;95.80;;;;;;4804230;29;20169;-78
2021/03/16 07:59:34;;;;;;;27.25;3.17;;;8.10;95.80;;;;;;4802218;29;20043;-77
2021/03/16 08:02:00;;;;;;;21.73;2.67;;;8.10;95.60;;;;;;4802259;29;20131;-78
2021/03/16 08:04:39;;;;;;;23.67;3.28;;;8.10;95.40;;;;;;4802172;29;20112;-76
2021/03/16 08:07:11;;;;;;;22.88;2.95;;;8.30;95.70;;;;;;4802247;29;20058;-77
2021/03/16 08:09:44;;;;;;;12.30;2.53;;;8.20;95.20;;;;;;4802093;29;20065;-78
2021/03/16 08:12:30;;;;;;;25.15;3.28;;;8.20;95.20;;;;;;4789771;29;20031;-79
2021/03/16 08:14:57;;;;;;;18.67;2.35;;;8.10;95.00;;;;;;4806543;29;20117;-76
2021/03/16 08:17:30;;;;;;;18.80;2.35;;;8.30;95.10;;;;;;4806474;29;20082;-77
2021/03/16 08:19:56;;;;;;;20.23;2.90;;;8.20;94.30;;;;;;4805773;29;20362;-80
2021/03/16 08:22:24;;;;;;;10.07;1.90;;;8.20;94.50;;;;;;4805720;29;20378;-79
2021/03/16 08:25:00;;;;;;;20.48;2.55;;;8.20;94.10;;;;;;4805533;29;20042;-78
2021/03/16 08:27:27;;;;;;;23.25;2.42;;;8.10;94.20;;;;;;4805666;29;20042;-78
2021/03/16 08:29:53;;;;;;;20.50;3.03;;;8.00;94.30;;;;;;4807162;29;20018;-77
2021/03/16 08:32:20;;;;;;;15.02;3.08;;;8.10;94.40;;;;;;4806359;29;20047;-78
2021/03/16 08:34:47;;;;;;;16.67;2.70;;;8.10;94.50;;;;;;4789855;29;20046;-78
2021/03/16 08:37:33;;;;;;;17.30;2.37;;;8.20;94.40;;;;;;4805694;29;20335;-78
2021/03/16 08:40:00;;;;;;;15.30;2.28;;;8.20;94.50;;;;;;4789097;29;20263;-79
2021/03/16 08:42:27;;;;;;;15.52;2.33;;;8.20;94.50;;;;;;4805367;29;20343;-82
2021/03/16 08:44:55;;;;;;;13.93;2.33;;;8.30;94.50;;;;;;4807282;29;20031;-80
2021/03/16 08:47:24;;;;;;;15.00;1.73;;;8.30;94.40;;;;;;4805373;29;20408;-78
2021/03/16 08:49:51;;;;;;;;;;;8.10;94.50;;;;;;4805645;29;20054;-79
2021/03/16 08:52:30;;;;;;;19.88;2.13;;;8.20;94.60;;;;;;4789196;29;19920;-78
2021/03/16 08:54:57;;;;;;;11.80;1.80;;;8.30;94.40;;;;;;4804839;29;20082;-77
2021/03/16 08:57:30;;;;;;;8.43;1.73;;;8.40;94.40;;;;;;4804945;29;20023;-79
2021/03/16 08:59:58;;;;;;;14.68;2.42;;;8.20;94.80;;;;;;4806088;29;20524;-78
2021/03/16 09:02:26;;;;;;;17.55;2.47;;;8.30;95.60;;;;;;4804871;29;20071;-79
2021/03/16 09:04:52;;;;;;;14.73;2.20;;;8.40;96.00;;;;;;4804554;29;20343;-79
2021/03/16 09:07:26;;;;;;;10.20;2.33;;;8.50;96.00;;;;;;4803947;29;20146;-79
2021/03/16 09:10:01;;;;;;;12.82;2.20;;;8.70;95.90;;;;;;4804759;29;20039;-76
2021/03/16 09:12:28;;;;;;;16.27;2.92;;;8.70;95.70;;;;;;4804765;29;20450;-78
2021/03/16 09:15:04;;;;;;;12.93;2.13;;;9.00;95.60;;;;;;4806226;29;20095;-78
2021/03/16 09:17:37;;;;;;;11.68;1.83;;;9.30;95.00;;;;;;4804344;29;20043;-77
2021/03/16 09:20:19;;;;;;;8.77;1.73;;;9.50;94.60;;;;;;4804968;29;20103;-76
2021/03/16 09:22:52;;;;;;;8.23;1.60;;;9.40;94.10;;;;;;4804178;29;20058;-78
2021/03/16 09:25:18;;;;;;;16.20;2.75;;;9.30;94.20;;;;;;4804539;29;20035;-78
2021/03/16 09:27:44;;;;;;;12.98;2.58;;;8.90;94.10;;;;;;4804444;29;20090;-77
2021/03/16 09:30:10;;;;;;;8.88;2.00;;;9.10;94.40;;;;;;4789733;29;20404;-78
2021/03/16 09:32:41;;;;;;;7.50;1.40;;;9.00;94.40;;;;;;4804512;29;20104;-78
2021/03/16 09:35:08;;;;;;;12.60;1.95;;;8.80;94.50;;;;;;4804595;29;20062;-77
2021/03/16 09:37:42;;;;;;;9.10;1.95;;;9.10;94.50;;;;;;4788356;29;20070;-78
2021/03/16 09:40:08;;;;;;;10.20;1.60;;;9.30;94.30;;;;;;4804599;29;20051;-85
2021/03/16 09:42:47;;;;;;;11.57;1.77;;;9.20;93.90;;;;;;4788479;29;20068;-77
2021/03/16 09:45:25;;;;;;;6.07;1.77;;;9.70;93.70;;;;;;4787926;29;20064;-79
2021/03/16 09:47:51;;;;;;;9.80;1.40;;;10.40;92.90;;;;;;4805595;29;20022;-78
2021/03/16 09:50:42;;;;;;;12.88;1.70;;;11.30;92.30;;;;;;4788145;29;20471;-80
2021/03/16 09:53:08;;;;;;;9.93;1.13;;;11.70;90.70;;;;;;4787894;29;20042;-79
2021/03/16 09:55:34;;;;;;;9.70;1.73;;;11.20;90.70;;;;;;4803756;29;20370;-79
2021/03/16 09:58:01;;;;;;;11.88;1.23;;;10.90;91.60;;;;;;4803000;29;20099;-78
2021/03/16 10:00:28;;;;;;;5.47;0.95;;;10.80;92.00;;;;;;4804092;29;20027;-80
2021/03/16 10:03:08;;;;;;;9.47;1.33;;;10.20;92.50;;;;;;4805359;29;20106;-80
2021/03/16 10:05:34;;;;;;;4.90;1.25;;;10.30;92.30;;;;;;4787672;29;20083;-81
2021/03/16 10:08:03;;;;;;;5.95;1.27;;;10.20;92.30;;;;;;4803876;29;20043;-80
2021/03/16 10:10:33;;;;;;;3.42;0.85;;;11.00;92.00;;;;;;4803958;29;20131;-82
2021/03/16 10:13:07;;;;;;;5.53;1.25;;;11.50;90.80;;;;;;4803795;29;20050;-80
2021/03/16 10:15:39;;;;;;;5.18;1.20;;;12.20;90.40;;;;;;4804057;29;20382;-82
2021/03/16 10:18:08;;;;;;;10.82;1.42;;;12.70;89.10;;;;;;4789326;29;20450;-82
2021/03/16 10:20:37;;;;;;;4.30;1.13;;;13.20;87.70;;;;;;4803912;29;20034;-81
2021/03/16 10:23:16;;;;;;;7.38;1.63;;;13.40;86.00;;;;;;4803686;29;20150;-80
2021/03/16 10:25:43;;;;;;;7.95;1.70;;;13.20;84.50;;;;;;4786904;29;20031;-79
2021/03/16 10:28:10;;;;;;;6.28;1.05;;;13.20;84.40;;;;;;4803459;29;20063;-80
2021/03/16 10:30:39;;;;;;;7.85;1.48;;;13.00;83.90;;;;;;4787495;29;20039;-78
2021/03/16 10:33:07;;;;;;;3.00;1.08;;;12.60;83.80;;;;;;4789165;29;20023;-79
2021/03/16 10:35:36;;;;;;;8.02;1.20;;;12.40;84.60;;;;;;4786869;29;20043;-81
2021/03/16 10:38:04;;;;;;;7.05;1.48;;;12.10;85.80;;;;;;4803591;29;20039;-81
2021/03/16 10:40:30;;;;;;;;;;;12.00;85.80;;;;;;4804092;29;20051;-81
2021/03/16 10:42:56;;;;;;;7.03;1.80;;;11.80;86.80;;;;;;4803547;29;19913;-82
2021/03/16 10:45:22;;;;;;;5.95;1.23;;;11.80;87.30;;;;;;4800131;29;20354;-80
2021/03/16 10:47:48;;;;;;;4.05;1.52;;;11.80;86.80;;;;;;4805108;29;20147;-81
2021/03/16 10:50:14;;;;;;;7.28;1.60;;;11.60;87.70;;;;;;4803122;29;20051;-80
2021/03/16 10:52:40;;;;;;;3.03;0.82;;;10.90;88.80;;;;;;4787017;29;20100;-82
2021/03/16 10:55:06;;;;;;;3.40;1.25;;;11.00;89.80;;;;;;4803198;29;20043;-82
2021/03/16 10:57:33;;;;;;;8.13;1.50;;;11.50;88.90;;;;;;4802723;29;20038;-81
2021/03/16 11:00:00;;;;;;;7.50;1.10;;;12.10;87.10;;;;;;4803270;29;20124;-80
2021/03/16 11:02:26;;;;;;;4.70;1.03;;;12.60;85.20;;;;;;4802901;29;20534;-80
2021/03/16 11:04:51;;;;;;;3.90;1.05;;;13.30;84.80;;;;;;4802820;29;20051;-81
2021/03/16 11:07:17;;;;;;;7.00;1.27;;;13.40;81.40;;;;;;4802837;29;20047;-82
2021/03/16 11:09:43;;;;;;;10.27;1.40;;;13.20;80.50;;;;;;4801665;29;20399;-78
2021/03/16 11:12:09;;;;;;;8.05;1.40;;;13.20;80.80;;;;;;4804295;29;20420;-79
2021/03/16 11:14:34;;;;;;;9.70;1.25;;;12.60;80.30;;;;;;4802481;29;20107;-81
2021/03/16 11:17:00;;;;;;;9.05;1.92;;;12.40;81.70;;;;;;4802466;29;20046;-79
2021/03/16 11:19:26;;;;;;;7.20;1.10;;;12.40;82.20;;;;;;4802732;29;20428;-79
2021/03/16 11:21:51;;;;;;;8.27;1.25;;;12.10;82.40;;;;;;4802640;29;20047;-79
2021/03/16 11:24:18;;;;;;;7.72;1.38;;;12.10;82.40;;;;;;4802485;29;20030;-81
2021/03/16 11:26:44;;;;;;;8.15;1.25;;;12.30;82.90;;;;;;4788096;29;20031;-81
2021/03/16 11:29:10;;;;;;;8.88;1.67;;;12.50;81.90;;;;;;4802017;29;20038;-79
2021/03/16 11:31:36;;;;;;;7.88;1.50;;;12.60;81.10;;;;;;4802285;29;20039;-81
2021/03/16 11:34:02;;;;;;;6.10;1.27;;;11.90;80.20;;;;;;4802467;29;20049;-78
2021/03/16 11:36:27;;;;;;;6.40;1.45;;;12.20;81.70;;;;;;4802309;29;20119;-79
2021/03/16 11:38:53;;;;;;;6.55;1.73;;;12.50;80.80;;;;;;4803851;29;20084;-78
2021/03/16 11:41:19;;;;;;;11.95;1.52;;;12.60;80.80;;;;;;4801393;29;20355;-79
2021/03/16 11:43:44;;;;;;;10.43;1.70;;;12.50;80.10;;;;;;4801002;29;20527;-79
2021/03/16 11:46:10;;;;;;;5.97;1.50;;;12.10;81.20;;;;;;4803358;29;20050;-80
2021/03/16 11:48:36;;;;;;;5.60;1.50;;;11.70;83.10;;;;;;4804454;29;20038;-81
2021/03/16 11:51:02;;;;;;;13.20;1.83;;;11.30;85.10;;;;;;4807334;29;20034;-80
2021/03/16 11:53:27;;;;;;;9.93;1.65;;;11.20;86.30;;;;;;4805778;29;20046;-80
2021/03/16 11:55:53;;;;;;;11.77;1.80;;;11.00;87.80;;;;;;4804478;29;20042;-79
2021/03/16 11:58:19;;;;;;;9.73;2.00;;;11.20;88.20;;;;;;4805950;29;20038;-78
2021/03/16 12:00:44;;;;;;;8.27;1.70;;;11.50;87.00;;;;;;4805536;29;20130;-78
2021/03/16 12:03:10;;;;;;;11.23;2.38;;;11.50;85.00;;;;;;4806404;29;20045;-78
2021/03/16 12:05:36;;;;;;;9.68;1.75;;;11.50;84.40;;;;;;4805718;29;20066;-79
2021/03/16 12:08:02;;;;;;;6.53;2.05;;;10.70;84.40;;;;;;4805811;29;20043;-80
2021/03/16 12:10:28;;;;;;;10.00;2.20;;;10.80;85.30;;;;;;4805695;29;20488;-78
2021/03/16 12:12:53;;;;;;;13.60;2.60;;;10.90;85.10;;;;;;4805485;29;20034;-78
2021/03/16 12:15:22;;;;;;;7.85;2.42;;;10.80;84.20;;;;;;4805555;29;20035;-77
2021/03/16 12:17:47;;;;;;;;;;;10.60;85.40;;;;;;4807615;29;20034;-78
2021/03/16 12:20:14;;;;;;;10.43;1.88;;;10.70;84.80;;;;;;4805154;29;19917;-79
2021/03/16 12:22:40;;;;;;;17.60;2.20;;;10.80;85.30;;;;;;4804799;29;20114;-79
2021/03/16 12:25:07;;;;;;;11.25;2.45;;;10.60;85.50;;;;;;4805723;29;20393;-78
2021/03/16 12:27:32;;;;;;;7.35;2.22;;;10.70;86.20;;;;;;4805265;29;20038;-79
2021/03/16 12:29:58;;;;;;;15.23;2.20;;;10.70;85.20;;;;;;4806685;29;20035;-79
2021/03/16 12:32:27;;;;;;;10.27;1.80;;;10.50;84.50;;;;;;4804784;29;20116;-79
2021/03/16 12:34:53;;;;;;;16.48;2.10;;;10.30;85.30;;;;;;4803881;29;20058;-79
2021/03/16 12:37:19;;;;;;;14.30;3.15;;;10.60;85.10;;;;;;4804736;29;20123;-79
2021/03/16 12:39:45;;;;;;;20.25;2.60;;;10.90;84.80;;;;;;4804061;29;20031;-78
2021/03/16 12:42:11;;;;;;;12.77;2.00;;;10.70;83.00;;;;;;4805750;29;20054;-73
2021/03/16 12:44:37;;;;;;;11.07;1.77;;;10.70;81.50;;;;;;4789433;29;20042;-77
2021/03/16 12:47:04;;;;;;;10.30;1.80;;;10.50;80.40;;;;;;4804632;29;20432;-77
2021/03/16 12:49:34;;;;;;;13.15;2.38;;;10.70;81.10;;;;;;4804780;29;20099;-79
2021/03/16 12:51:59;;;;;;;15.02;2.30;;;10.70;79.30;;;;;;4803928;29;20103;-77